createdAt,value
2018-01-17T00:00:40.755Z,4.75
2018-01-17T00:03:11.084Z,4.00
2018-01-17T00:05:41.680Z,4.00
2018-01-17T00:08:14.004Z,4.75
2018-01-17T00:10:44.516Z,5.25
2018-01-17T00:13:14.965Z,5.00
2018-01-17T00:15:46.286Z,6.00
2018-01-17T00:18:17.556Z,8.00
2018-01-17T00:20:48.957Z,5.50
2018-01-17T00:23:19.773Z,7.00
2018-01-17T00:25:52.075Z,8.00
2018-01-17T00:31:23.366Z,6.25
2018-01-17T00:33:55.241Z,8.00
2018-01-17T00:36:29.891Z,6.00
2018-01-17T00:39:02.889Z,8.00
2018-01-17T00:41:35.499Z,5.00
2018-01-17T00:44:05.858Z,6.50
2018-01-17T00:46:37.372Z,5.50
2018-01-17T00:49:08.414Z,5.25
2018-01-17T00:51:38.703Z,4.75
2018-01-17T00:54:15.645Z,4.75
2018-01-17T00:56:46.148Z,10.00
2018-01-17T00:59:16.626Z,7.75
2018-01-17T01:01:50.875Z,4.50
2018-01-17T01:04:22.986Z,5.00
2018-01-17T01:06:53.628Z,6.00
2018-01-17T01:09:24.126Z,5.75
2018-01-17T01:11:55.898Z,6.00
2018-01-17T01:14:26.382Z,6.75
2018-01-17T01:16:57.314Z,5.75
2018-01-17T01:19:27.760Z,9.50
2018-01-17T01:21:58.363Z,4.75
2018-01-17T01:24:28.988Z,5.75
2018-01-17T01:26:59.807Z,8.00
2018-01-17T01:29:30.100Z,5.75
2018-01-17T01:32:15.664Z,7.75
2018-01-17T01:34:46.142Z,5.00
2018-01-17T01:37:16.495Z,3.50
2018-01-17T01:39:46.961Z,5.25
2018-01-17T01:42:17.854Z,3.00
2018-01-17T01:44:48.184Z,3.00
2018-01-17T01:47:19.984Z,5.00
2018-01-17T01:49:50.723Z,5.00
2018-01-17T01:52:23.014Z,5.75
2018-01-17T01:54:53.717Z,3.50
2018-01-17T01:57:25.024Z,6.00
2018-01-17T01:59:56.155Z,6.25
2018-01-17T02:02:26.505Z,6.00
2018-01-17T02:04:58.126Z,6.00
2018-01-17T02:07:28.813Z,9.00
2018-01-17T02:09:59.036Z,9.75
2018-01-17T02:12:29.651Z,10.00
2018-01-17T02:15:00.838Z,8.50
2018-01-17T02:17:38.546Z,3.00
2018-01-17T02:20:09.734Z,6.00
2018-01-17T02:22:41.950Z,3.00
2018-01-17T02:25:13.724Z,6.00
2018-01-17T02:27:46.898Z,3.00
2018-01-17T02:30:17.439Z,4.00
2018-01-17T02:32:47.825Z,1.50
2018-01-17T02:35:18.165Z,1.00
2018-01-17T02:37:48.437Z,4.50
2018-01-17T02:40:51.889Z,7.75
2018-01-17T02:43:22.184Z,5.00
2018-01-17T02:45:53.014Z,5.00
2018-01-17T02:48:23.763Z,3.00
2018-01-17T02:50:59.500Z,3.50
2018-01-17T02:53:29.824Z,5.00
2018-01-17T02:56:00.856Z,6.50
2018-01-17T02:58:32.108Z,5.00
2018-01-17T03:01:02.821Z,5.50
2018-01-17T03:03:33.465Z,5.00
2018-01-17T03:06:04.041Z,7.00
2018-01-17T03:08:36.313Z,7.00
2018-01-17T03:11:08.025Z,3.00
2018-01-17T03:13:38.575Z,10.00
2018-01-17T03:16:10.787Z,3.00
2018-01-17T03:18:41.480Z,10.50
2018-01-17T03:21:12.784Z,4.50
2018-01-17T03:23:43.482Z,9.50
2018-01-17T03:26:13.794Z,13.25
2018-01-17T03:28:44.450Z,15.50
2018-01-17T03:31:15.147Z,25.25
2018-01-17T03:33:45.633Z,30.25
2018-01-17T03:36:16.388Z,20.25
2018-01-17T03:38:46.951Z,12.75
2018-01-17T03:41:17.267Z,6.50
2018-01-17T03:43:50.077Z,5.00
2018-01-17T03:46:20.493Z,7.00
2018-01-17T03:48:50.842Z,3.00
2018-01-17T03:51:21.321Z,3.00
2018-01-17T03:53:51.796Z,3.00
2018-01-17T03:56:22.572Z,5.00
2018-01-17T03:58:52.846Z,3.00
2018-01-17T04:01:23.563Z,5.50
2018-01-17T04:03:54.066Z,6.50
2018-01-17T04:06:24.261Z,5.50
2018-01-17T04:08:55.100Z,5.00
2018-01-17T04:11:25.704Z,5.00
2018-01-17T04:13:56.382Z,7.00
2018-01-17T04:16:27.899Z,8.00
2018-01-17T04:18:58.628Z,5.50
2018-01-17T04:21:29.847Z,3.50
2018-01-17T04:24:00.333Z,2.00
2018-01-17T04:26:31.232Z,4.00
2018-01-17T04:29:01.996Z,3.50
2018-01-17T04:31:32.395Z,2.50
2018-01-17T04:34:03.186Z,2.00
2018-01-17T04:36:39.411Z,3.50
2018-01-17T04:39:09.830Z,3.00
2018-01-17T04:41:41.942Z,3.00
2018-01-17T04:44:12.681Z,1.50
2018-01-17T04:46:45.437Z,6.50
2018-01-17T04:49:17.434Z,5.00
2018-01-17T04:51:47.917Z,3.00
2018-01-17T04:54:19.418Z,3.50
2018-01-17T04:56:51.637Z,4.50
2018-01-17T04:59:22.164Z,5.00
2018-01-17T05:01:52.924Z,3.00
2018-01-17T05:04:24.857Z,4.50
2018-01-17T05:06:55.485Z,1.00
2018-01-17T05:09:26.338Z,3.00
2018-01-17T05:11:56.808Z,5.00
2018-01-17T05:14:27.224Z,3.00
2018-01-17T05:16:58.764Z,5.00
2018-01-17T05:19:29.020Z,2.00
2018-01-17T05:22:01.061Z,2.50
2018-01-17T05:24:32.255Z,1.00
2018-01-17T05:27:03.147Z,1.00
2018-01-17T05:29:35.788Z,1.50
2018-01-17T05:32:09.244Z,3.00
2018-01-17T05:34:41.846Z,10.25
2018-01-17T05:37:14.192Z,5.00
2018-01-17T05:39:44.598Z,7.00
2018-01-17T05:42:16.360Z,7.00
2018-01-17T05:44:47.487Z,11.25
2018-01-17T05:47:18.036Z,7.00
2018-01-17T05:49:50.931Z,12.50
2018-01-17T05:52:21.274Z,13.25
2018-01-17T05:54:51.791Z,9.25
2018-01-17T05:57:22.720Z,12.75
2018-01-17T05:59:53.568Z,11.00
2018-01-17T06:02:24.734Z,13.50
2018-01-17T06:04:55.290Z,12.00
2018-01-17T06:07:27.376Z,9.50
2018-01-17T06:09:58.864Z,11.50
2018-01-17T06:12:29.937Z,10.50
2018-01-17T06:15:07.196Z,10.00
2018-01-17T06:17:38.219Z,9.00
2018-01-17T06:20:09.641Z,9.00
2018-01-17T06:22:40.681Z,5.00
2018-01-17T06:25:11.599Z,10.75
2018-01-17T06:27:42.054Z,7.50
2018-01-17T06:30:17.560Z,6.00
2018-01-17T06:32:49.391Z,4.50
2018-01-17T06:35:20.633Z,3.00
2018-01-17T06:37:54.175Z,7.00
2018-01-17T06:40:24.687Z,9.00
2018-01-17T06:42:55.032Z,10.50
2018-01-17T06:45:25.875Z,9.75
2018-01-17T06:47:56.957Z,13.50
2018-01-17T06:50:29.330Z,11.50
2018-01-17T06:53:01.117Z,12.25
2018-01-17T06:56:06.403Z,12.00
2018-01-17T06:58:38.943Z,14.75
2018-01-17T07:01:10.168Z,9.75
2018-01-17T07:03:40.555Z,10.75
2018-01-17T07:06:11.452Z,9.00
2018-01-17T07:08:44.405Z,7.00
2018-01-17T07:13:55.336Z,7.50
2018-01-17T07:16:28.398Z,10.75
2018-01-17T07:19:00.532Z,9.25
2018-01-17T07:21:31.137Z,9.25
2018-01-17T07:24:02.296Z,11.75
2018-01-17T07:26:32.739Z,5.00
2018-01-17T07:29:03.604Z,14.00
2018-01-17T07:34:07.129Z,12.50
2018-01-17T07:36:39.711Z,8.00
2018-01-17T07:39:10.838Z,5.00
2018-01-17T07:41:48.660Z,8.75
2018-01-17T07:44:22.272Z,7.50
2018-01-17T07:46:53.736Z,9.75
2018-01-17T07:49:25.724Z,10.50
2018-01-17T07:51:56.063Z,7.25
2018-01-17T07:54:27.808Z,9.50
2018-01-17T07:56:59.019Z,10.00
2018-01-17T07:59:33.763Z,7.50
2018-01-17T08:02:04.856Z,10.50
2018-01-17T08:04:36.204Z,11.50
2018-01-17T08:07:06.563Z,9.50
2018-01-17T08:09:38.403Z,11.00
2018-01-17T08:12:09.239Z,12.00
2018-01-17T08:14:40.737Z,13.50
2018-01-17T08:17:12.475Z,12.00
2018-01-17T08:19:43.142Z,16.50
2018-01-17T08:22:15.142Z,12.75
2018-01-17T08:24:46.408Z,12.75
2018-01-17T08:27:17.064Z,14.00
2018-01-17T08:29:47.907Z,13.50
2018-01-17T08:32:20.677Z,12.00
2018-01-17T08:34:51.569Z,10.25
2018-01-17T08:37:38.846Z,16.75
2018-01-17T08:40:09.879Z,13.25
2018-01-17T08:42:40.634Z,17.50
2018-01-17T08:45:15.580Z,19.50
2018-01-17T08:47:45.968Z,16.00
2018-01-17T08:50:17.547Z,12.00
2018-01-17T08:52:49.149Z,14.25
2018-01-17T08:55:21.073Z,14.25
2018-01-17T08:57:55.360Z,25.25
2018-01-17T09:00:28.659Z,19.25
2018-01-17T09:02:59.184Z,16.50
2018-01-17T09:05:31.097Z,13.50
2018-01-17T09:08:03.296Z,14.25
2018-01-17T09:10:40.629Z,12.25
2018-01-17T09:13:12.104Z,11.50
2018-01-17T09:15:42.562Z,11.00
2018-01-17T09:18:13.911Z,13.25
2018-01-17T09:20:45.195Z,13.00
2018-01-17T09:23:16.797Z,11.25
2018-01-17T09:25:48.339Z,14.00
2018-01-17T09:28:18.680Z,14.25
2018-01-17T09:30:56.589Z,14.00
2018-01-17T09:33:27.788Z,14.25
2018-01-17T09:36:01.541Z,14.50
2018-01-17T09:38:31.836Z,15.50
2018-01-17T09:41:02.351Z,15.25
2018-01-17T09:43:34.479Z,12.00
2018-01-17T09:46:05.458Z,15.00
2018-01-17T09:48:36.276Z,10.75
2018-01-17T09:51:07.567Z,12.00
2018-01-17T09:53:38.041Z,12.25
2018-01-17T09:56:08.884Z,12.00
2018-01-17T09:58:39.985Z,11.75
2018-01-17T10:01:10.534Z,17.50
2018-01-17T10:03:40.866Z,17.75
2018-01-17T10:06:11.686Z,9.00
2018-01-17T10:08:42.334Z,12.75
2018-01-17T10:11:12.709Z,11.75
2018-01-17T10:13:43.107Z,13.50
2018-01-17T10:16:13.993Z,15.25
2018-01-17T10:18:44.794Z,15.50
2018-01-17T10:21:16.689Z,14.50
2018-01-17T10:23:48.147Z,16.25
2018-01-17T10:26:18.970Z,20.50
2018-01-17T10:28:49.292Z,11.50
2018-01-17T10:31:21.221Z,10.50
2018-01-17T10:33:51.915Z,16.00
2018-01-17T10:36:23.233Z,8.00
2018-01-17T10:38:53.686Z,9.25
2018-01-17T10:41:25.176Z,11.75
2018-01-17T10:43:55.657Z,16.25
2018-01-17T10:46:26.782Z,15.50
2018-01-17T10:48:58.152Z,18.25
2018-01-17T10:51:44.119Z,14.25
2018-01-17T10:54:15.047Z,16.25
2018-01-17T10:56:47.576Z,14.00
2018-01-17T10:59:18.215Z,16.75
2018-01-17T11:01:49.239Z,16.00
2018-01-17T11:04:24.861Z,15.00
2018-01-17T11:06:59.872Z,13.00
2018-01-17T11:09:33.529Z,16.00
2018-01-17T11:12:04.029Z,16.25
2018-01-17T11:14:37.494Z,18.75
2018-01-17T11:17:11.541Z,18.50
2018-01-17T11:19:49.324Z,16.25
2018-01-17T11:22:21.019Z,15.25
2018-01-17T11:25:04.369Z,20.75
2018-01-17T11:27:35.183Z,21.00
2018-01-17T11:30:08.122Z,13.25
2018-01-17T11:32:39.158Z,18.25
2018-01-17T11:35:09.865Z,14.25
2018-01-17T11:37:41.137Z,11.75
2018-01-17T11:40:11.432Z,10.50
2018-01-17T11:42:43.188Z,13.00
2018-01-17T11:45:17.191Z,28.75
2018-01-17T11:47:49.312Z,22.00
2018-01-17T11:50:24.581Z,17.75
2018-01-17T11:52:55.392Z,15.50
2018-01-17T11:55:25.764Z,17.75
2018-01-17T11:57:56.056Z,22.75
2018-01-17T12:00:31.374Z,20.00
2018-01-17T12:03:02.759Z,15.00
2018-01-17T12:05:33.793Z,16.50
2018-01-17T12:08:06.700Z,21.00
2018-01-17T12:10:37.497Z,18.25
2018-01-17T12:13:08.968Z,14.25
2018-01-17T12:15:40.393Z,22.00
2018-01-17T12:18:14.199Z,18.00
2018-01-17T12:20:47.161Z,14.50
2018-01-17T12:23:18.429Z,14.50
2018-01-17T12:25:49.169Z,20.75
2018-01-17T12:28:24.272Z,16.50
2018-01-17T12:30:54.835Z,11.50
2018-01-17T12:33:26.438Z,14.75
2018-01-17T12:35:58.160Z,14.00
2018-01-17T12:38:29.195Z,13.50
2018-01-17T12:41:00.088Z,10.50
2018-01-17T12:43:30.440Z,12.00
2018-01-17T12:46:01.273Z,13.00
2018-01-17T12:48:32.298Z,16.50
2018-01-17T12:51:02.695Z,20.25
2018-01-17T12:53:33.018Z,14.50
2018-01-17T12:56:04.073Z,15.50
2018-01-17T12:58:34.556Z,19.25
2018-01-17T13:01:05.692Z,12.25
2018-01-17T13:03:37.967Z,17.25
2018-01-17T13:06:14.854Z,20.50
2018-01-17T13:08:50.953Z,22.00
2018-01-17T13:11:22.216Z,16.75
2018-01-17T13:13:52.516Z,16.75
2018-01-17T13:16:23.388Z,15.25
2018-01-17T13:18:54.022Z,18.50
2018-01-17T13:21:24.457Z,11.00
2018-01-17T13:23:57.302Z,14.75
2018-01-17T13:26:28.081Z,9.75
2018-01-17T13:28:59.739Z,15.00
2018-01-17T13:31:31.106Z,11.00
2018-01-17T13:34:01.549Z,17.50
2018-01-17T13:36:33.342Z,14.00
2018-01-17T13:39:08.383Z,15.25
2018-01-17T13:41:39.370Z,10.25
2018-01-17T13:44:23.979Z,12.75
2018-01-17T13:46:56.701Z,14.75
2018-01-17T13:49:27.803Z,12.50
2018-01-17T13:51:58.746Z,15.00
2018-01-17T13:54:31.645Z,13.00
2018-01-17T13:57:02.775Z,12.00
2018-01-17T13:59:33.815Z,12.25
2018-01-17T14:02:04.390Z,16.50
2018-01-17T14:04:35.599Z,17.50
2018-01-17T14:07:06.733Z,8.00
2018-01-17T14:09:37.127Z,16.00
2018-01-17T14:12:07.703Z,10.00
2018-01-17T14:14:40.284Z,8.00
2018-01-17T14:17:12.584Z,12.50
2018-01-17T14:19:45.161Z,16.50
2018-01-17T14:22:18.098Z,9.25
2018-01-17T14:24:48.817Z,10.00
2018-01-17T14:27:20.545Z,10.00
2018-01-17T14:29:52.997Z,15.75
2018-01-17T14:32:23.602Z,7.50
2018-01-17T14:34:54.600Z,8.50
2018-01-17T14:37:24.782Z,7.25
2018-01-17T14:39:55.230Z,10.25
2018-01-17T14:42:26.125Z,8.00
2018-01-17T14:44:57.655Z,7.00
2018-01-17T14:47:42.339Z,7.75
2018-01-17T14:50:14.110Z,7.50
2018-01-17T14:52:44.480Z,7.50
2018-01-17T14:55:16.279Z,8.00
2018-01-17T14:57:46.957Z,5.50
2018-01-17T15:00:26.736Z,5.00
2018-01-17T15:02:57.685Z,10.00
2018-01-17T15:05:29.382Z,6.75
2018-01-17T15:10:46.365Z,10.25
2018-01-17T15:13:20.205Z,5.25
2018-01-17T15:15:54.897Z,5.00
2018-01-17T15:18:32.339Z,5.25
2018-01-17T15:21:04.240Z,6.75
2018-01-17T15:23:35.957Z,7.75
2018-01-17T15:26:06.813Z,9.00
2018-01-17T15:28:38.177Z,10.00
2018-01-17T15:31:10.029Z,15.75
2018-01-17T15:33:43.265Z,12.50
2018-01-17T15:36:16.303Z,12.25
2018-01-17T15:38:47.494Z,7.00
2018-01-17T15:41:20.524Z,5.00
2018-01-17T15:43:52.781Z,6.00
2018-01-17T15:46:24.413Z,12.75
2018-01-17T15:48:55.731Z,10.00
2018-01-17T15:51:27.356Z,5.00
2018-01-17T15:53:58.915Z,10.25
2018-01-17T15:56:29.972Z,9.00
2018-01-17T15:59:01.664Z,7.00
2018-01-17T16:01:33.775Z,11.50
2018-01-17T16:04:08.466Z,7.50
2018-01-17T16:06:40.303Z,5.75
2018-01-17T16:09:10.893Z,9.00
2018-01-17T16:11:42.440Z,12.00
2018-01-17T16:14:13.177Z,10.00
2018-01-17T16:16:44.964Z,10.50
2018-01-17T16:19:16.593Z,11.25
2018-01-17T16:21:51.270Z,15.25
2018-01-17T16:24:27.686Z,9.50
2018-01-17T16:27:00.025Z,8.00
2018-01-17T16:29:31.302Z,7.75
2018-01-17T16:32:02.982Z,10.50
2018-01-17T16:34:36.663Z,10.00
2018-01-17T16:37:07.346Z,6.75
2018-01-17T16:39:42.406Z,9.00
2018-01-17T16:42:14.366Z,5.50
2018-01-17T16:44:56.414Z,11.75
2018-01-17T16:47:27.614Z,11.00
2018-01-17T16:49:59.396Z,9.50
2018-01-17T16:52:31.514Z,8.00
2018-01-17T16:55:02.675Z,8.50
2018-01-17T16:57:33.045Z,11.75
2018-01-17T17:00:07.721Z,8.00
2018-01-17T17:02:40.157Z,11.00
2018-01-17T17:05:11.932Z,10.00
2018-01-17T17:07:42.853Z,13.25
2018-01-17T17:10:14.551Z,10.00
2018-01-17T17:12:47.280Z,15.25
2018-01-17T17:15:25.018Z,6.25
2018-01-17T17:17:56.020Z,15.00
2018-01-17T17:20:27.518Z,11.50
2018-01-17T17:22:57.985Z,10.50
2018-01-17T17:27:57.422Z,12.25
2018-01-17T17:30:31.162Z,15.25
2018-01-17T17:33:03.023Z,16.75
2018-01-17T17:35:40.684Z,17.50
2018-01-17T17:38:18.559Z,14.75
2018-01-17T17:40:50.745Z,12.00
2018-01-17T17:43:22.588Z,18.25
2018-01-17T17:45:54.567Z,15.00
2018-01-17T17:48:26.501Z,20.00
2018-01-17T17:51:01.776Z,21.00
2018-01-17T17:53:33.604Z,17.00
2018-01-17T17:56:06.140Z,18.00
2018-01-17T17:58:43.701Z,15.25
2018-01-17T18:01:19.813Z,15.75
2018-01-17T18:03:51.481Z,17.00
2018-01-17T18:06:25.007Z,21.50
2018-01-17T18:08:55.949Z,15.25
2018-01-17T18:11:26.645Z,21.00
2018-01-17T18:14:00.509Z,21.75
2018-01-17T18:16:32.591Z,21.50
2018-01-17T18:19:05.369Z,26.75
2018-01-17T18:21:39.757Z,22.00
2018-01-17T18:24:15.824Z,19.75
2018-01-17T18:26:46.702Z,28.50
2018-01-17T18:29:18.119Z,11.75
2018-01-17T18:31:49.314Z,16.00
2018-01-17T18:34:19.728Z,17.75
2018-01-17T18:36:52.309Z,15.25
2018-01-17T18:39:23.086Z,17.00
2018-01-17T18:41:56.428Z,16.75
2018-01-17T18:44:28.685Z,12.25
2018-01-17T18:47:00.031Z,18.25
2018-01-17T18:49:30.371Z,24.25
2018-01-17T18:52:01.051Z,12.25
2018-01-17T18:54:32.537Z,60.50
2018-01-17T18:57:03.731Z,10.75
2018-01-17T18:59:34.610Z,13.00
2018-01-17T19:02:07.647Z,9.50
2018-01-17T19:04:39.950Z,12.00
2018-01-17T19:07:11.087Z,11.75
2018-01-17T19:09:41.438Z,10.00
2018-01-17T19:12:12.572Z,11.75
2018-01-17T19:14:43.227Z,15.00
2018-01-17T19:17:13.888Z,18.25
2018-01-17T19:19:44.838Z,18.50
2018-01-17T19:22:16.337Z,12.00
2018-01-17T19:27:53.134Z,21.75
2018-01-17T19:30:23.890Z,18.50
2018-01-17T19:32:54.334Z,21.75
2018-01-17T19:35:28.130Z,14.50
2018-01-17T19:37:58.481Z,17.50
2018-01-17T19:40:32.411Z,15.00
2018-01-17T19:43:02.876Z,15.00
2018-01-17T19:45:34.007Z,11.50
2018-01-17T19:48:04.891Z,11.00
2018-01-17T19:50:36.298Z,13.25
2018-01-17T19:53:07.230Z,12.25
2018-01-17T19:55:37.782Z,11.75
2018-01-17T19:58:08.316Z,10.50
2018-01-17T20:00:45.124Z,14.75
2018-01-17T20:03:26.254Z,11.50
2018-01-17T20:05:57.067Z,12.25
2018-01-17T20:08:29.020Z,10.00
2018-01-17T20:11:00.235Z,14.75
2018-01-17T20:13:30.889Z,11.00
2018-01-17T20:16:02.401Z,14.50
2018-01-17T20:18:32.958Z,15.00
2018-01-17T20:21:04.553Z,16.50
2018-01-17T20:23:38.691Z,11.50
2018-01-17T20:26:09.718Z,17.25
2018-01-17T20:28:42.081Z,12.75
2018-01-17T20:31:14.839Z,14.75
2018-01-17T20:33:50.213Z,16.75
2018-01-17T20:36:21.299Z,14.75
2018-01-17T20:38:51.888Z,19.75
2018-01-17T20:41:23.844Z,12.50
2018-01-17T20:44:19.888Z,19.25
2018-01-17T20:46:50.849Z,13.75
2018-01-17T20:49:22.003Z,14.50
2018-01-17T20:51:53.237Z,20.75
2018-01-17T20:54:24.662Z,14.75
2018-01-17T20:56:59.002Z,12.75
2018-01-17T20:59:38.406Z,19.50
2018-01-17T21:02:10.246Z,12.50
2018-01-17T21:04:41.087Z,18.00
2018-01-17T21:07:12.080Z,12.25
2018-01-17T21:09:44.563Z,11.00
2018-01-17T21:12:16.107Z,10.75
2018-01-17T21:14:50.247Z,16.00
2018-01-17T21:17:22.569Z,15.25
2018-01-17T21:19:53.332Z,14.00
2018-01-17T21:22:24.656Z,15.75
2018-01-17T21:24:56.291Z,23.50
2018-01-17T21:27:34.008Z,16.75
2018-01-17T21:30:07.373Z,16.75
2018-01-17T21:32:39.727Z,15.25
2018-01-17T21:35:10.744Z,11.25
2018-01-17T21:37:43.406Z,18.00
2018-01-17T21:40:14.316Z,17.75
2018-01-17T21:42:49.018Z,18.75
2018-01-17T21:45:53.441Z,13.00
2018-01-17T21:48:23.936Z,17.00
2018-01-17T21:50:54.898Z,13.00
2018-01-17T21:53:25.512Z,15.50
2018-01-17T21:55:56.046Z,13.25
2018-01-17T21:58:26.418Z,9.00
2018-01-17T22:00:59.621Z,10.75
2018-01-17T22:03:30.624Z,10.25
2018-01-17T22:06:01.075Z,16.00
2018-01-17T22:08:32.397Z,10.75
2018-01-17T22:11:04.438Z,15.75
2018-01-17T22:13:34.988Z,23.25
2018-01-17T22:16:06.258Z,12.75
2018-01-17T22:18:36.803Z,14.00
2018-01-17T22:21:08.264Z,16.00
2018-01-17T22:23:40.041Z,10.25
2018-01-17T22:26:10.481Z,16.25
2018-01-17T22:28:46.372Z,13.00
2018-01-17T22:31:17.135Z,16.25
2018-01-17T22:33:47.697Z,8.25
2018-01-17T22:36:17.984Z,11.75
2018-01-17T22:38:48.424Z,14.50
2018-01-17T22:41:20.701Z,15.25
2018-01-17T22:43:51.084Z,11.25
2018-01-17T22:46:21.642Z,15.50
2018-01-17T22:48:53.566Z,15.50
2018-01-17T22:51:24.019Z,19.25
2018-01-17T22:53:54.290Z,16.00
2018-01-17T22:56:24.858Z,13.00
2018-01-17T22:58:55.350Z,18.00
2018-01-17T23:01:26.606Z,17.00
2018-01-17T23:03:57.203Z,14.75
2018-01-17T23:06:27.675Z,11.25
2018-01-17T23:08:58.172Z,12.50
2018-01-17T23:11:29.987Z,14.75
2018-01-17T23:14:00.720Z,20.25
2018-01-17T23:16:31.680Z,14.00
2018-01-17T23:19:02.268Z,18.00
2018-01-17T23:21:33.140Z,12.50
2018-01-17T23:24:03.803Z,13.75
2018-01-17T23:26:34.304Z,12.50
2018-01-17T23:29:05.072Z,16.25
2018-01-17T23:31:35.708Z,14.00
2018-01-17T23:34:06.022Z,20.00
2018-01-17T23:36:36.270Z,15.00
2018-01-17T23:39:07.115Z,18.25
2018-01-17T23:41:48.800Z,21.00
2018-01-17T23:44:19.244Z,12.25
2018-01-17T23:46:50.384Z,14.25
2018-01-17T23:49:20.843Z,8.00
2018-01-17T23:51:51.312Z,20.25
2018-01-17T23:54:22.828Z,15.00
2018-01-17T23:56:53.626Z,11.00
2018-01-17T23:59:24.063Z,13.00
